sensor_id;sensor_type;location;lat;lon;timestamp;P1;durP1;ratioP1;P2;durP2;ratioP2
68196;SDS011;55019;49.382;11.358;2023-02-28T00:01:16;1.40;;;1.10;;
68196;SDS011;55019;49.382;11.358;2023-02-28T00:03:42;3.00;;;1.60;;
68196;SDS011;55019;49.382;11.358;2023-02-28T00:06:08;5.18;;;1.98;;
68196;SDS011;55019;49.382;11.358;2023-02-28T00:08:37;2.72;;;1.45;;
68196;SDS011;55019;49.382;11.358;2023-02-28T00:11:07;2.90;;;1.70;;
68196;SDS011;55019;49.382;11.358;2023-02-28T00:13:36;1.90;;;1.48;;
68196;SDS011;55019;49.382;11.358;2023-02-28T00:16:04;3.45;;;1.75;;
68196;SDS011;55019;49.382;11.358;2023-02-28T00:18:32;2.55;;;1.55;;
68196;SDS011;55019;49.382;11.358;2023-02-28T00:20:58;4.47;;;1.58;;
68196;SDS011;55019;49.382;11.358;2023-02-28T00:23:24;2.08;;;1.52;;
68196;SDS011;55019;49.382;11.358;2023-02-28T00:25:51;2.17;;;1.60;;
68196;SDS011;55019;49.382;11.358;2023-02-28T00:28:17;3.78;;;1.90;;
68196;SDS011;55019;49.382;11.358;2023-02-28T00:30:43;3.83;;;1.73;;
68196;SDS011;55019;49.382;11.358;2023-02-28T00:33:09;2.30;;;1.45;;
68196;SDS011;55019;49.382;11.358;2023-02-28T00:35:34;2.80;;;1.52;;
68196;SDS011;55019;49.382;11.358;2023-02-28T00:38:00;2.10;;;1.63;;
68196;SDS011;55019;49.382;11.358;2023-02-28T00:40:26;2.88;;;1.77;;
68196;SDS011;55019;49.382;11.358;2023-02-28T00:42:52;2.78;;;1.60;;
68196;SDS011;55019;49.382;11.358;2023-02-28T00:45:18;2.67;;;1.38;;
68196;SDS011;55019;49.382;11.358;2023-02-28T00:47:44;3.95;;;1.40;;
68196;SDS011;55019;49.382;11.358;2023-02-28T00:50:12;2.85;;;1.75;;
68196;SDS011;55019;49.382;11.358;2023-02-28T00:52:37;2.30;;;1.30;;
68196;SDS011;55019;49.382;11.358;2023-02-28T00:55:03;4.18;;;2.35;;
68196;SDS011;55019;49.382;11.358;2023-02-28T00:57:30;3.03;;;1.50;;
68196;SDS011;55019;49.382;11.358;2023-02-28T00:59:55;3.70;;;1.85;;
68196;SDS011;55019;49.382;11.358;2023-02-28T01:02:21;2.88;;;1.88;;
68196;SDS011;55019;49.382;11.358;2023-02-28T01:04:48;3.50;;;1.80;;
68196;SDS011;55019;49.382;11.358;2023-02-28T01:07:14;3.05;;;1.73;;
68196;SDS011;55019;49.382;11.358;2023-02-28T01:09:40;3.30;;;1.30;;
68196;SDS011;55019;49.382;11.358;2023-02-28T01:12:07;2.50;;;1.58;;
68196;SDS011;55019;49.382;11.358;2023-02-28T01:14:33;3.47;;;1.90;;
68196;SDS011;55019;49.382;11.358;2023-02-28T01:17:00;3.17;;;1.63;;
68196;SDS011;55019;49.382;11.358;2023-02-28T01:19:26;2.70;;;1.60;;
68196;SDS011;55019;49.382;11.358;2023-02-28T01:21:51;2.20;;;1.35;;
68196;SDS011;55019;49.382;11.358;2023-02-28T01:24:17;3.25;;;1.40;;
68196;SDS011;55019;49.382;11.358;2023-02-28T01:26:44;2.03;;;1.52;;
68196;SDS011;55019;49.382;11.358;2023-02-28T01:29:09;1.90;;;1.50;;
68196;SDS011;55019;49.382;11.358;2023-02-28T01:31:35;3.20;;;1.98;;
68196;SDS011;55019;49.382;11.358;2023-02-28T01:34:01;3.47;;;1.70;;
68196;SDS011;55019;49.382;11.358;2023-02-28T01:36:28;2.38;;;1.50;;
68196;SDS011;55019;49.382;11.358;2023-02-28T01:38:54;2.88;;;1.70;;
68196;SDS011;55019;49.382;11.358;2023-02-28T01:41:22;2.85;;;1.40;;
68196;SDS011;55019;49.382;11.358;2023-02-28T01:43:57;2.58;;;1.85;;
68196;SDS011;55019;49.382;11.358;2023-02-28T01:46:23;1.05;;;0.98;;
68196;SDS011;55019;49.382;11.358;2023-02-28T01:48:53;2.28;;;1.80;;
68196;SDS011;55019;49.382;11.358;2023-02-28T01:54:12;1.77;;;1.20;;
68196;SDS011;55019;49.382;11.358;2023-02-28T01:56:43;2.08;;;1.30;;
68196;SDS011;55019;49.382;11.358;2023-02-28T01:59:14;3.30;;;1.88;;
68196;SDS011;55019;49.382;11.358;2023-02-28T02:01:47;2.58;;;1.85;;
68196;SDS011;55019;49.382;11.358;2023-02-28T02:04:13;1.55;;;0.95;;
68196;SDS011;55019;49.382;11.358;2023-02-28T02:06:42;3.20;;;1.48;;
68196;SDS011;55019;49.382;11.358;2023-02-28T02:09:11;3.25;;;1.45;;
68196;SDS011;55019;49.382;11.358;2023-02-28T02:11:37;2.50;;;1.15;;
68196;SDS011;55019;49.382;11.358;2023-02-28T02:37:05;2.42;;;1.52;;
68196;SDS011;55019;49.382;11.358;2023-02-28T02:39:51;3.78;;;2.00;;
68196;SDS011;55019;49.382;11.358;2023-02-28T02:45:01;4.10;;;2.00;;
68196;SDS011;55019;49.382;11.358;2023-02-28T02:47:54;4.90;;;1.77;;
68196;SDS011;55019;49.382;11.358;2023-02-28T02:50:24;3.35;;;1.60;;
68196;SDS011;55019;49.382;11.358;2023-02-28T02:52:57;2.88;;;1.70;;
68196;SDS011;55019;49.382;11.358;2023-02-28T02:55:27;6.45;;;2.85;;
68196;SDS011;55019;49.382;11.358;2023-02-28T02:57:57;6.72;;;1.63;;
68196;SDS011;55019;49.382;11.358;2023-02-28T03:00:29;5.60;;;2.00;;
68196;SDS011;55019;49.382;11.358;2023-02-28T03:02:58;4.35;;;1.80;;
68196;SDS011;55019;49.382;11.358;2023-02-28T03:05:26;5.32;;;1.65;;
68196;SDS011;55019;49.382;11.358;2023-02-28T03:07:56;4.32;;;1.65;;
68196;SDS011;55019;49.382;11.358;2023-02-28T03:10:32;4.43;;;2.20;;
68196;SDS011;55019;49.382;11.358;2023-02-28T03:27:08;5.35;;;1.98;;
68196;SDS011;55019;49.382;11.358;2023-02-28T03:29:50;4.68;;;2.05;;
68196;SDS011;55019;49.382;11.358;2023-02-28T03:35:16;6.53;;;2.53;;
68196;SDS011;55019;49.382;11.358;2023-02-28T03:37:47;6.00;;;2.35;;
68196;SDS011;55019;49.382;11.358;2023-02-28T03:40:19;6.18;;;1.73;;
68196;SDS011;55019;49.382;11.358;2023-02-28T03:42:49;5.00;;;1.95;;
68196;SDS011;55019;49.382;11.358;2023-02-28T03:45:28;3.95;;;2.03;;
68196;SDS011;55019;49.382;11.358;2023-02-28T03:48:07;4.80;;;2.53;;
68196;SDS011;55019;49.382;11.358;2023-02-28T03:50:41;5.78;;;2.10;;
68196;SDS011;55019;49.382;11.358;2023-02-28T03:53:15;4.90;;;2.00;;
68196;SDS011;55019;49.382;11.358;2023-02-28T03:55:45;4.57;;;2.00;;
68196;SDS011;55019;49.382;11.358;2023-02-28T03:58:29;3.33;;;2.10;;
68196;SDS011;55019;49.382;11.358;2023-02-28T04:01:08;6.43;;;2.60;;
68196;SDS011;55019;49.382;11.358;2023-02-28T04:03:38;3.42;;;1.83;;
68196;SDS011;55019;49.382;11.358;2023-02-28T04:06:05;5.68;;;2.55;;
68196;SDS011;55019;49.382;11.358;2023-02-28T04:08:33;3.22;;;2.45;;
68196;SDS011;55019;49.382;11.358;2023-02-28T04:11:33;5.45;;;2.80;;
68196;SDS011;55019;49.382;11.358;2023-02-28T04:14:00;4.28;;;1.92;;
68196;SDS011;55019;49.382;11.358;2023-02-28T04:16:27;7.50;;;3.30;;
68196;SDS011;55019;49.382;11.358;2023-02-28T04:18:53;7.18;;;2.97;;
68196;SDS011;55019;49.382;11.358;2023-02-28T04:21:19;6.30;;;2.65;;
68196;SDS011;55019;49.382;11.358;2023-02-28T04:26:13;3.70;;;2.70;;
68196;SDS011;55019;49.382;11.358;2023-02-28T04:28:38;4.15;;;2.63;;
68196;SDS011;55019;49.382;11.358;2023-02-28T04:31:04;4.70;;;2.47;;
68196;SDS011;55019;49.382;11.358;2023-02-28T04:33:31;4.65;;;2.42;;
68196;SDS011;55019;49.382;11.358;2023-02-28T04:35:58;4.03;;;2.50;;
68196;SDS011;55019;49.382;11.358;2023-02-28T04:38:34;5.75;;;2.08;;
68196;SDS011;55019;49.382;11.358;2023-02-28T04:41:01;4.93;;;3.05;;
68196;SDS011;55019;49.382;11.358;2023-02-28T04:43:28;3.88;;;2.40;;
68196;SDS011;55019;49.382;11.358;2023-02-28T04:45:55;5.20;;;2.55;;
68196;SDS011;55019;49.382;11.358;2023-02-28T04:48:25;5.00;;;2.38;;
68196;SDS011;55019;49.382;11.358;2023-02-28T04:50:53;4.25;;;2.22;;
68196;SDS011;55019;49.382;11.358;2023-02-28T04:53:19;4.15;;;2.35;;
68196;SDS011;55019;49.382;11.358;2023-02-28T04:55:45;5.97;;;2.38;;
68196;SDS011;55019;49.382;11.358;2023-02-28T04:58:11;3.58;;;2.20;;
68196;SDS011;55019;49.382;11.358;2023-02-28T05:00:37;5.20;;;2.47;;
68196;SDS011;55019;49.382;11.358;2023-02-28T05:03:03;5.95;;;2.92;;
68196;SDS011;55019;49.382;11.358;2023-02-28T05:05:29;6.03;;;2.80;;
68196;SDS011;55019;49.382;11.358;2023-02-28T05:07:54;6.10;;;2.50;;
68196;SDS011;55019;49.382;11.358;2023-02-28T05:10:21;5.78;;;2.97;;
68196;SDS011;55019;49.382;11.358;2023-02-28T05:12:49;3.78;;;2.53;;
68196;SDS011;55019;49.382;11.358;2023-02-28T05:15:15;5.63;;;2.63;;
68196;SDS011;55019;49.382;11.358;2023-02-28T05:17:42;6.18;;;2.85;;
68196;SDS011;55019;49.382;11.358;2023-02-28T05:20:09;5.18;;;2.95;;
68196;SDS011;55019;49.382;11.358;2023-02-28T05:22:39;5.97;;;2.65;;
68196;SDS011;55019;49.382;11.358;2023-02-28T05:25:05;4.57;;;3.22;;
68196;SDS011;55019;49.382;11.358;2023-02-28T05:27:32;5.55;;;2.67;;
68196;SDS011;55019;49.382;11.358;2023-02-28T05:29:58;4.00;;;2.15;;
68196;SDS011;55019;49.382;11.358;2023-02-28T05:32:24;4.95;;;2.72;;
68196;SDS011;55019;49.382;11.358;2023-02-28T05:34:50;5.45;;;2.30;;
68196;SDS011;55019;49.382;11.358;2023-02-28T05:37:16;6.63;;;3.58;;
68196;SDS011;55019;49.382;11.358;2023-02-28T05:39:42;3.85;;;2.28;;
68196;SDS011;55019;49.382;11.358;2023-02-28T05:42:07;5.38;;;2.58;;
68196;SDS011;55019;49.382;11.358;2023-02-28T05:44:34;3.47;;;2.35;;
68196;SDS011;55019;49.382;11.358;2023-02-28T05:47:01;5.50;;;3.08;;
68196;SDS011;55019;49.382;11.358;2023-02-28T05:49:26;5.82;;;3.13;;
68196;SDS011;55019;49.382;11.358;2023-02-28T05:51:52;4.35;;;2.35;;
68196;SDS011;55019;49.382;11.358;2023-02-28T05:54:18;7.53;;;3.10;;
68196;SDS011;55019;49.382;11.358;2023-02-28T05:56:43;6.25;;;2.88;;
68196;SDS011;55019;49.382;11.358;2023-02-28T05:59:11;6.53;;;2.58;;
68196;SDS011;55019;49.382;11.358;2023-02-28T06:01:39;5.28;;;2.75;;
68196;SDS011;55019;49.382;11.358;2023-02-28T06:04:13;6.18;;;2.50;;
68196;SDS011;55019;49.382;11.358;2023-02-28T06:06:43;5.28;;;2.97;;
68196;SDS011;55019;49.382;11.358;2023-02-28T06:09:12;4.93;;;2.30;;
68196;SDS011;55019;49.382;11.358;2023-02-28T06:11:39;5.25;;;3.20;;
68196;SDS011;55019;49.382;11.358;2023-02-28T06:14:05;7.35;;;2.85;;
68196;SDS011;55019;49.382;11.358;2023-02-28T06:16:34;4.65;;;2.65;;
68196;SDS011;55019;49.382;11.358;2023-02-28T06:19:01;5.50;;;3.45;;
68196;SDS011;55019;49.382;11.358;2023-02-28T06:21:28;5.07;;;3.10;;
68196;SDS011;55019;49.382;11.358;2023-02-28T06:23:55;8.43;;;3.38;;
68196;SDS011;55019;49.382;11.358;2023-02-28T06:26:21;5.22;;;2.22;;
68196;SDS011;55019;49.382;11.358;2023-02-28T06:28:47;5.10;;;2.40;;
68196;SDS011;55019;49.382;11.358;2023-02-28T06:31:15;6.80;;;3.10;;
68196;SDS011;55019;49.382;11.358;2023-02-28T06:33:42;4.28;;;2.63;;
68196;SDS011;55019;49.382;11.358;2023-02-28T06:36:08;4.82;;;2.63;;
68196;SDS011;55019;49.382;11.358;2023-02-28T06:38:35;5.05;;;2.42;;
68196;SDS011;55019;49.382;11.358;2023-02-28T06:41:01;5.32;;;2.97;;
68196;SDS011;55019;49.382;11.358;2023-02-28T06:43:29;5.20;;;2.80;;
68196;SDS011;55019;49.382;11.358;2023-02-28T06:45:57;4.68;;;2.60;;
68196;SDS011;55019;49.382;11.358;2023-02-28T06:48:25;5.82;;;2.88;;
68196;SDS011;55019;49.382;11.358;2023-02-28T06:50:52;6.10;;;2.50;;
68196;SDS011;55019;49.382;11.358;2023-02-28T06:53:17;5.22;;;2.38;;
68196;SDS011;55019;49.382;11.358;2023-02-28T06:55:43;4.88;;;2.88;;
68196;SDS011;55019;49.382;11.358;2023-02-28T06:58:09;3.97;;;2.38;;
68196;SDS011;55019;49.382;11.358;2023-02-28T07:00:41;7.55;;;2.97;;
68196;SDS011;55019;49.382;11.358;2023-02-28T07:03:09;5.93;;;3.10;;
68196;SDS011;55019;49.382;11.358;2023-02-28T07:05:35;6.35;;;3.15;;
68196;SDS011;55019;49.382;11.358;2023-02-28T07:08:03;4.55;;;2.25;;
68196;SDS011;55019;49.382;11.358;2023-02-28T07:10:29;6.93;;;3.00;;
68196;SDS011;55019;49.382;11.358;2023-02-28T07:12:55;4.78;;;2.55;;
68196;SDS011;55019;49.382;11.358;2023-02-28T07:15:21;4.80;;;2.80;;
68196;SDS011;55019;49.382;11.358;2023-02-28T07:17:47;4.65;;;2.50;;
68196;SDS011;55019;49.382;11.358;2023-02-28T07:20:12;5.45;;;2.78;;
68196;SDS011;55019;49.382;11.358;2023-02-28T07:22:38;4.28;;;2.63;;
68196;SDS011;55019;49.382;11.358;2023-02-28T07:25:04;5.88;;;2.97;;
68196;SDS011;55019;49.382;11.358;2023-02-28T07:27:30;4.70;;;2.25;;
68196;SDS011;55019;49.382;11.358;2023-02-28T07:29:56;7.18;;;3.08;;
68196;SDS011;55019;49.382;11.358;2023-02-28T07:32:22;5.90;;;2.85;;
68196;SDS011;55019;49.382;11.358;2023-02-28T07:34:48;5.78;;;2.83;;
68196;SDS011;55019;49.382;11.358;2023-02-28T07:37:14;6.03;;;2.95;;
68196;SDS011;55019;49.382;11.358;2023-02-28T07:39:40;6.28;;;3.33;;
68196;SDS011;55019;49.382;11.358;2023-02-28T07:42:07;5.55;;;3.08;;
68196;SDS011;55019;49.382;11.358;2023-02-28T07:44:40;7.43;;;2.97;;
68196;SDS011;55019;49.382;11.358;2023-02-28T07:47:08;6.72;;;3.00;;
68196;SDS011;55019;49.382;11.358;2023-02-28T07:49:35;7.13;;;2.88;;
68196;SDS011;55019;49.382;11.358;2023-02-28T07:52:02;6.35;;;3.13;;
68196;SDS011;55019;49.382;11.358;2023-02-28T07:54:32;5.40;;;3.25;;
68196;SDS011;55019;49.382;11.358;2023-02-28T07:56:58;9.02;;;3.33;;
68196;SDS011;55019;49.382;11.358;2023-02-28T07:59:24;7.97;;;4.40;;
68196;SDS011;55019;49.382;11.358;2023-02-28T08:01:50;7.63;;;4.15;;
68196;SDS011;55019;49.382;11.358;2023-02-28T08:04:16;7.25;;;3.50;;
68196;SDS011;55019;49.382;11.358;2023-02-28T08:06:43;9.05;;;3.60;;
68196;SDS011;55019;49.382;11.358;2023-02-28T08:09:09;6.47;;;3.60;;
68196;SDS011;55019;49.382;11.358;2023-02-28T08:11:36;7.20;;;3.97;;
68196;SDS011;55019;49.382;11.358;2023-02-28T08:14:01;6.95;;;3.60;;
68196;SDS011;55019;49.382;11.358;2023-02-28T08:16:27;6.22;;;3.55;;
68196;SDS011;55019;49.382;11.358;2023-02-28T08:18:53;6.10;;;3.45;;
68196;SDS011;55019;49.382;11.358;2023-02-28T08:21:19;8.18;;;3.55;;
68196;SDS011;55019;49.382;11.358;2023-02-28T08:23:46;5.28;;;3.38;;
68196;SDS011;55019;49.382;11.358;2023-02-28T08:26:14;7.32;;;4.07;;
68196;SDS011;55019;49.382;11.358;2023-02-28T08:28:40;6.78;;;4.45;;
68196;SDS011;55019;49.382;11.358;2023-02-28T08:31:09;6.25;;;4.15;;
68196;SDS011;55019;49.382;11.358;2023-02-28T08:33:36;6.75;;;3.72;;
68196;SDS011;55019;49.382;11.358;2023-02-28T08:38:30;5.70;;;4.05;;
68196;SDS011;55019;49.382;11.358;2023-02-28T08:40:59;5.28;;;3.90;;
68196;SDS011;55019;49.382;11.358;2023-02-28T08:43:27;7.15;;;4.20;;
68196;SDS011;55019;49.382;11.358;2023-02-28T08:45:54;7.47;;;4.45;;
68196;SDS011;55019;49.382;11.358;2023-02-28T08:48:22;6.88;;;3.88;;
68196;SDS011;55019;49.382;11.358;2023-02-28T08:50:58;6.10;;;3.72;;
68196;SDS011;55019;49.382;11.358;2023-02-28T08:53:29;5.72;;;3.05;;
68196;SDS011;55019;49.382;11.358;2023-02-28T08:55:56;9.25;;;4.25;;
68196;SDS011;55019;49.382;11.358;2023-02-28T08:58:22;6.53;;;4.32;;
68196;SDS011;55019;49.382;11.358;2023-02-28T09:00:48;6.60;;;4.25;;
68196;SDS011;55019;49.382;11.358;2023-02-28T09:03:15;6.97;;;4.45;;
68196;SDS011;55019;49.382;11.358;2023-02-28T09:05:40;5.70;;;3.63;;
68196;SDS011;55019;49.382;11.358;2023-02-28T09:08:06;7.57;;;4.30;;
68196;SDS011;55019;49.382;11.358;2023-02-28T09:10:32;5.78;;;3.85;;
68196;SDS011;55019;49.382;11.358;2023-02-28T09:12:57;7.18;;;4.18;;
68196;SDS011;55019;49.382;11.358;2023-02-28T09:15:23;5.75;;;4.15;;
68196;SDS011;55019;49.382;11.358;2023-02-28T09:17:48;3.92;;;3.15;;
68196;SDS011;55019;49.382;11.358;2023-02-28T09:20:14;6.30;;;4.57;;
68196;SDS011;55019;49.382;11.358;2023-02-28T09:22:40;7.55;;;4.30;;
68196;SDS011;55019;49.382;11.358;2023-02-28T09:25:06;5.30;;;3.85;;
68196;SDS011;55019;49.382;11.358;2023-02-28T09:27:32;7.22;;;4.22;;
68196;SDS011;55019;49.382;11.358;2023-02-28T09:29:58;6.03;;;3.38;;
68196;SDS011;55019;49.382;11.358;2023-02-28T09:32:23;5.85;;;4.82;;
68196;SDS011;55019;49.382;11.358;2023-02-28T09:34:49;7.65;;;4.50;;
68196;SDS011;55019;49.382;11.358;2023-02-28T09:37:15;6.80;;;4.93;;
68196;SDS011;55019;49.382;11.358;2023-02-28T09:39:41;6.35;;;4.28;;
68196;SDS011;55019;49.382;11.358;2023-02-28T09:42:11;6.60;;;4.28;;
68196;SDS011;55019;49.382;11.358;2023-02-28T09:44:46;7.30;;;4.40;;
68196;SDS011;55019;49.382;11.358;2023-02-28T09:47:27;6.70;;;4.20;;
68196;SDS011;55019;49.382;11.358;2023-02-28T09:49:59;6.78;;;4.13;;
68196;SDS011;55019;49.382;11.358;2023-02-28T09:52:33;5.75;;;4.57;;
68196;SDS011;55019;49.382;11.358;2023-02-28T09:55:04;6.70;;;4.30;;
68196;SDS011;55019;49.382;11.358;2023-02-28T09:57:56;5.43;;;4.18;;
68196;SDS011;55019;49.382;11.358;2023-02-28T10:00:35;9.30;;;4.20;;
68196;SDS011;55019;49.382;11.358;2023-02-28T10:05:59;6.15;;;4.70;;
68196;SDS011;55019;49.382;11.358;2023-02-28T10:08:45;6.07;;;3.97;;
68196;SDS011;55019;49.382;11.358;2023-02-28T10:11:17;5.28;;;3.97;;
68196;SDS011;55019;49.382;11.358;2023-02-28T10:13:48;5.57;;;4.22;;
68196;SDS011;55019;49.382;11.358;2023-02-28T10:16:35;5.60;;;4.53;;
68196;SDS011;55019;49.382;11.358;2023-02-28T10:19:16;6.40;;;4.05;;
68196;SDS011;55019;49.382;11.358;2023-02-28T10:24:58;5.25;;;4.20;;
68196;SDS011;55019;49.382;11.358;2023-02-28T10:27:34;5.85;;;4.13;;
68196;SDS011;55019;49.382;11.358;2023-02-28T10:30:01;4.97;;;3.97;;
68196;SDS011;55019;49.382;11.358;2023-02-28T10:32:31;7.03;;;4.00;;
68196;SDS011;55019;49.382;11.358;2023-02-28T10:35:18;5.80;;;4.78;;
68196;SDS011;55019;49.382;11.358;2023-02-28T10:37:50;6.78;;;4.55;;
68196;SDS011;55019;49.382;11.358;2023-02-28T10:43:03;6.22;;;4.30;;
68196;SDS011;55019;49.382;11.358;2023-02-28T10:45:34;5.97;;;4.05;;
68196;SDS011;55019;49.382;11.358;2023-02-28T10:50:42;6.78;;;4.32;;
68196;SDS011;55019;49.382;11.358;2023-02-28T10:55:42;5.75;;;4.18;;
68196;SDS011;55019;49.382;11.358;2023-02-28T10:58:21;6.03;;;4.20;;
68196;SDS011;55019;49.382;11.358;2023-02-28T11:00:51;6.28;;;5.05;;
68196;SDS011;55019;49.382;11.358;2023-02-28T11:05:55;6.22;;;4.50;;
68196;SDS011;55019;49.382;11.358;2023-02-28T11:08:21;6.45;;;4.30;;
68196;SDS011;55019;49.382;11.358;2023-02-28T11:10:48;6.50;;;4.75;;
68196;SDS011;55019;49.382;11.358;2023-02-28T11:13:20;7.05;;;4.60;;
68196;SDS011;55019;49.382;11.358;2023-02-28T11:15:55;6.78;;;4.78;;
68196;SDS011;55019;49.382;11.358;2023-02-28T11:20:52;7.22;;;4.40;;
68196;SDS011;55019;49.382;11.358;2023-02-28T11:23:21;7.72;;;4.75;;
68196;SDS011;55019;49.382;11.358;2023-02-28T11:25:50;7.43;;;4.55;;
68196;SDS011;55019;49.382;11.358;2023-02-28T11:28:26;7.53;;;5.13;;
68196;SDS011;55019;49.382;11.358;2023-02-28T11:31:04;6.45;;;4.72;;
68196;SDS011;55019;49.382;11.358;2023-02-28T11:36:14;5.97;;;4.82;;
68196;SDS011;55019;49.382;11.358;2023-02-28T11:38:47;6.53;;;4.60;;
68196;SDS011;55019;49.382;11.358;2023-02-28T11:44:23;5.57;;;4.35;;
68196;SDS011;55019;49.382;11.358;2023-02-28T11:46:54;5.93;;;4.65;;
68196;SDS011;55019;49.382;11.358;2023-02-28T11:49:30;7.63;;;5.20;;
68196;SDS011;55019;49.382;11.358;2023-02-28T12:03:38;8.65;;;5.57;;
68196;SDS011;55019;49.382;11.358;2023-02-28T12:09:05;7.15;;;5.40;;
68196;SDS011;55019;49.382;11.358;2023-02-28T12:25:50;6.32;;;5.30;;
68196;SDS011;55019;49.382;11.358;2023-02-28T12:28:30;6.78;;;5.55;;
68196;SDS011;55019;49.382;11.358;2023-02-28T12:31:02;8.02;;;5.53;;
68196;SDS011;55019;49.382;11.358;2023-02-28T12:33:38;5.80;;;4.90;;
68196;SDS011;55019;49.382;11.358;2023-02-28T12:36:16;6.57;;;5.18;;
68196;SDS011;55019;49.382;11.358;2023-02-28T12:38:53;7.88;;;5.00;;
68196;SDS011;55019;49.382;11.358;2023-02-28T12:44:16;6.43;;;5.18;;
68196;SDS011;55019;49.382;11.358;2023-02-28T12:46:49;6.13;;;5.32;;
68196;SDS011;55019;49.382;11.358;2023-02-28T12:49:19;6.28;;;5.68;;
68196;SDS011;55019;49.382;11.358;2023-02-28T12:51:51;6.50;;;5.05;;
68196;SDS011;55019;49.382;11.358;2023-02-28T13:00:14;8.57;;;5.85;;
68196;SDS011;55019;49.382;11.358;2023-02-28T13:13:14;6.65;;;4.78;;
68196;SDS011;55019;49.382;11.358;2023-02-28T13:16:16;6.20;;;4.97;;
68196;SDS011;55019;49.382;11.358;2023-02-28T13:21:08;8.05;;;5.60;;
68196;SDS011;55019;49.382;11.358;2023-02-28T13:23:56;9.20;;;5.88;;
68196;SDS011;55019;49.382;11.358;2023-02-28T13:29:02;7.20;;;5.45;;
68196;SDS011;55019;49.382;11.358;2023-02-28T13:34:40;8.95;;;5.20;;
68196;SDS011;55019;49.382;11.358;2023-02-28T13:47:32;8.15;;;5.60;;
68196;SDS011;55019;49.382;11.358;2023-02-28T13:52:48;7.80;;;5.35;;
68196;SDS011;55019;49.382;11.358;2023-02-28T14:03:47;8.68;;;5.88;;
68196;SDS011;55019;49.382;11.358;2023-02-28T14:06:47;6.60;;;5.22;;
68196;SDS011;55019;49.382;11.358;2023-02-28T14:09:28;6.45;;;5.13;;
68196;SDS011;55019;49.382;11.358;2023-02-28T14:15:04;7.00;;;5.15;;
68196;SDS011;55019;49.382;11.358;2023-02-28T14:17:53;5.97;;;4.57;;
68196;SDS011;55019;49.382;11.358;2023-02-28T14:20:21;5.55;;;4.68;;
68196;SDS011;55019;49.382;11.358;2023-02-28T14:23:13;6.07;;;5.07;;
68196;SDS011;55019;49.382;11.358;2023-02-28T14:31:13;6.82;;;4.60;;
68196;SDS011;55019;49.382;11.358;2023-02-28T14:36:16;6.82;;;4.70;;
68196;SDS011;55019;49.382;11.358;2023-02-28T14:38:47;7.20;;;4.78;;
68196;SDS011;55019;49.382;11.358;2023-02-28T14:41:20;6.18;;;5.07;;
68196;SDS011;55019;49.382;11.358;2023-02-28T14:43:55;7.90;;;5.05;;
68196;SDS011;55019;49.382;11.358;2023-02-28T14:46:23;6.50;;;4.85;;
68196;SDS011;55019;49.382;11.358;2023-02-28T14:48:53;5.78;;;4.80;;
68196;SDS011;55019;49.382;11.358;2023-02-28T14:51:21;5.85;;;4.78;;
68196;SDS011;55019;49.382;11.358;2023-02-28T14:53:51;6.38;;;5.05;;
68196;SDS011;55019;49.382;11.358;2023-02-28T14:56:23;6.72;;;5.00;;
68196;SDS011;55019;49.382;11.358;2023-02-28T14:58:54;5.60;;;4.97;;
68196;SDS011;55019;49.382;11.358;2023-02-28T15:01:21;7.35;;;5.28;;
68196;SDS011;55019;49.382;11.358;2023-02-28T15:03:48;6.30;;;5.00;;
68196;SDS011;55019;49.382;11.358;2023-02-28T15:06:23;6.63;;;4.78;;
68196;SDS011;55019;49.382;11.358;2023-02-28T15:09:06;8.20;;;4.93;;
68196;SDS011;55019;49.382;11.358;2023-02-28T15:14:04;6.07;;;5.05;;
68196;SDS011;55019;49.382;11.358;2023-02-28T15:16:37;7.40;;;5.35;;
68196;SDS011;55019;49.382;11.358;2023-02-28T15:19:17;5.57;;;4.78;;
68196;SDS011;55019;49.382;11.358;2023-02-28T15:22:02;8.43;;;4.68;;
68196;SDS011;55019;49.382;11.358;2023-02-28T15:24:35;7.15;;;4.97;;
68196;SDS011;55019;49.382;11.358;2023-02-28T15:27:06;10.27;;;4.93;;
68196;SDS011;55019;49.382;11.358;2023-02-28T15:29:42;7.88;;;4.55;;
68196;SDS011;55019;49.382;11.358;2023-02-28T15:34:57;7.18;;;4.30;;
68196;SDS011;55019;49.382;11.358;2023-02-28T15:37:33;6.30;;;4.57;;
68196;SDS011;55019;49.382;11.358;2023-02-28T15:40:12;6.68;;;4.75;;
68196;SDS011;55019;49.382;11.358;2023-02-28T15:42:40;7.15;;;4.90;;
68196;SDS011;55019;49.382;11.358;2023-02-28T15:45:28;6.78;;;4.97;;
68196;SDS011;55019;49.382;11.358;2023-02-28T15:47:57;6.95;;;4.75;;
68196;SDS011;55019;49.382;11.358;2023-02-28T15:50:23;6.78;;;4.57;;
68196;SDS011;55019;49.382;11.358;2023-02-28T15:52:49;8.00;;;4.70;;
68196;SDS011;55019;49.382;11.358;2023-02-28T15:55:20;8.93;;;4.88;;
68196;SDS011;55019;49.382;11.358;2023-02-28T15:57:49;6.00;;;4.63;;
68196;SDS011;55019;49.382;11.358;2023-02-28T16:00:19;6.80;;;4.45;;
68196;SDS011;55019;49.382;11.358;2023-02-28T16:02:49;7.70;;;4.97;;
68196;SDS011;55019;49.382;11.358;2023-02-28T16:05:20;6.70;;;4.03;;
68196;SDS011;55019;49.382;11.358;2023-02-28T16:07:56;6.93;;;4.55;;
68196;SDS011;55019;49.382;11.358;2023-02-28T16:10:41;7.10;;;4.03;;
68196;SDS011;55019;49.382;11.358;2023-02-28T16:13:08;6.72;;;4.43;;
68196;SDS011;55019;49.382;11.358;2023-02-28T16:15:38;7.80;;;4.82;;
68196;SDS011;55019;49.382;11.358;2023-02-28T16:18:09;7.60;;;4.40;;
68196;SDS011;55019;49.382;11.358;2023-02-28T16:20:37;7.60;;;4.63;;
68196;SDS011;55019;49.382;11.358;2023-02-28T16:23:04;8.57;;;4.82;;
68196;SDS011;55019;49.382;11.358;2023-02-28T16:25:34;8.38;;;5.20;;
68196;SDS011;55019;49.382;11.358;2023-02-28T16:28:02;7.82;;;4.78;;
68196;SDS011;55019;49.382;11.358;2023-02-28T16:30:29;7.50;;;4.50;;
68196;SDS011;55019;49.382;11.358;2023-02-28T16:32:58;8.18;;;4.65;;
68196;SDS011;55019;49.382;11.358;2023-02-28T16:35:24;13.98;;;6.53;;
68196;SDS011;55019;49.382;11.358;2023-02-28T16:37:50;14.93;;;7.75;;
68196;SDS011;55019;49.382;11.358;2023-02-28T16:40:19;13.60;;;7.25;;
68196;SDS011;55019;49.382;11.358;2023-02-28T16:42:48;8.05;;;5.18;;
68196;SDS011;55019;49.382;11.358;2023-02-28T16:45:18;9.57;;;4.30;;
68196;SDS011;55019;49.382;11.358;2023-02-28T16:47:47;8.75;;;4.25;;
68196;SDS011;55019;49.382;11.358;2023-02-28T16:50:16;6.38;;;3.92;;
68196;SDS011;55019;49.382;11.358;2023-02-28T16:52:44;6.95;;;4.10;;
68196;SDS011;55019;49.382;11.358;2023-02-28T16:55:10;10.73;;;4.55;;
68196;SDS011;55019;49.382;11.358;2023-02-28T16:57:37;8.15;;;4.55;;
68196;SDS011;55019;49.382;11.358;2023-02-28T17:00:05;7.85;;;4.30;;
68196;SDS011;55019;49.382;11.358;2023-02-28T17:02:33;8.85;;;4.38;;
68196;SDS011;55019;49.382;11.358;2023-02-28T17:04:59;8.23;;;4.10;;
68196;SDS011;55019;49.382;11.358;2023-02-28T17:07:25;11.38;;;4.57;;
68196;SDS011;55019;49.382;11.358;2023-02-28T17:09:51;8.82;;;4.50;;
68196;SDS011;55019;49.382;11.358;2023-02-28T17:12:17;9.38;;;4.72;;
68196;SDS011;55019;49.382;11.358;2023-02-28T17:14:42;9.32;;;4.78;;
68196;SDS011;55019;49.382;11.358;2023-02-28T17:17:09;7.10;;;4.07;;
68196;SDS011;55019;49.382;11.358;2023-02-28T17:19:47;8.40;;;4.30;;
68196;SDS011;55019;49.382;11.358;2023-02-28T17:22:13;7.40;;;3.88;;
68196;SDS011;55019;49.382;11.358;2023-02-28T17:24:39;6.53;;;4.07;;
68196;SDS011;55019;49.382;11.358;2023-02-28T17:27:05;10.07;;;5.03;;
68196;SDS011;55019;49.382;11.358;2023-02-28T17:29:32;8.98;;;4.90;;
68196;SDS011;55019;49.382;11.358;2023-02-28T17:31:58;7.43;;;3.95;;
68196;SDS011;55019;49.382;11.358;2023-02-28T17:34:25;8.15;;;3.78;;
68196;SDS011;55019;49.382;11.358;2023-02-28T17:36:51;7.50;;;4.40;;